Tiempo atmosférico en la estación meteorológica de Tarancón, Cuenca (808 m.)



Fecha
DESCASC
Temp. máxima en grados centígrados (hora)
DESCASC
Temp. mínima en grados centígrados (hora)
DESCASC
Temp. media en grados centígrados
DESCASC
Racha de viento máxima en m/sg (hora)
DESCASC
Velocidad máxima media en intervalos de 10 minutos(hora)
DESCASC
Precipitaciones diarias en mm
DESCASC
Precipitaciones de 00:00 a 06:00 en mm
DESCASC
Precipitaciones de 06:00 a 12:00 en mm
DESCASC
Precipitaciones de 12:00 a 18:00 en mm
DESCASC
Precipitaciones de 18:00 a 24:00 en mm
DESCASC
22-01-2020 11.7 (15:40) 3.5 (02:00) 7.6 11.67 (12:50) 6.39 (13:00) 0 0 0 0 0
21-01-2020 7 (14:50) 1.4 (04:50) 4.2 13.33 (09:00) 7.78 (09:40) 1.2 0 0 1.2 0
20-01-2020 5.1 (15:20) 0.2 (04:50) 2.6 16.67 (01:00) 9.44 (01:10) 0 0 0 0 0
19-01-2020 7.2 (00:00) 1.5 (00:00) 4.3 17.22 (18:50) 10.28 (13:50) 0 0 0 0 0
18-01-2020 8.5 (16:30) 4.6 (00:00) 6.5 10.56 (22:50) 6.67 (22:00) 2.4 0 1.2 0 1.2
17-01-2020 12.7 (16:00) 5 (00:00) 8.8 11.67 (12:20) 6.94 (12:00) 0 0 0 0 0
16-01-2020 15.5 (16:10) 5.2 (00:00) 10.3 8.06 (12:40) 4.72 (17:10) 0 0 0 0 0
15-01-2020 11.9 (15:40) 1.8 (00:00) 6.8 6.94 (07:40) 4.17 (08:10) 0 0 0 0 0
14-01-2020 11.7 (15:30) -0.9 (-00:0) 5.4 5 (14:20) 3.06 (08:30) 0 0 0 0 0
13-01-2020 10.3 (15:40) -1.2 (-00:0) 4.6 6.67 (13:30) 3.61 (13:50) 0 0 0 0 0
12-01-2020 11.9 (15:40) -1.6 (-00:0) 5.1 5.56 (15:20) 3.06 (14:50) 0 0 0 0 0
11-01-2020 11.9 (16:50) -0.1 (00:00) 5.9 7.5 (00:10) 4.72 (00:10) 0 0 0 0 0
10-01-2020 10.2 (15:50) 0.8 (00:00) 5.5 11.67 (15:20) 7.22 (14:40) 0 0 0 0 0
09-01-2020 15.7 (15:10) 4.3 (00:00) 10 7.78 (04:00) 4.44 (04:00) 0 0 0 0 0
08-01-2020 19.3 (15:40) 2.4 (00:00) 10.8 6.39 (20:10) 3.89 (20:10) 0 0 0 0 0
07-01-2020 15.4 (17:10) 1.9 (00:00) 8.6 4.44 (22:30) 2.5 (15:10) 0 0 0 0 0
06-01-2020 15 (17:10) 2.8 (00:00) 8.9 4.72 (10:20) 2.22 (10:20) 0 0 0 0 0
05-01-2020 13.9 (16:00) 0.8 (00:00) 7.3 4.17 (02:40) 2.5 (02:20) 0 0 0 0 0
04-01-2020 12.1 (17:10) 0.1 (00:00) 6.1 5.28 (06:20) 2.78 (05:40) 0 0 0 0 0
03-01-2020 5.8 (14:00) 1.9 (00:00) 3.9 5.83 (11:50) 2.78 (22:40) 0 0 0 0 0
02-01-2020 16.8 (15:40) 1.6 (00:00) 9.2 3.89 (18:40) 2.5 (05:50) 0 0 0 0 0
01-01-2020 15.2 (16:00) 1.9 (00:00) 8.5 3.33 (16:20) 1.94 (17:10) 0 0 0 0 0
31-12-2019 16.1 (16:50) 2.2 (00:00) 9.2 3.61 (04:10) 2.5 (04:10) 0 0 0 0 0
30-12-2019 14.1 (15:40) 3 (00:00) 8.6 6.67 (11:20) 4.17 (11:20) 0 0 0 0 0
29-12-2019 15.6 (15:30) 3.9 (00:00) 9.8 4.72 (08:50) 3.06 (01:40) 0 0 0 0 0
28-12-2019 17 (14:10) 2.8 (00:00) 9.9 5 (09:40) 3.33 (08:50) 0 0 0 0 0
27-12-2019 13.9 (16:20) 4.8 (00:00) 9.3 5.83 (03:30) 3.33 (03:30) 0 0 0 0 0

Gráficas

Temp. máximas Temp. mínimas Temp. medias Precipitaciones Rachas de viento máximas Velocidades máximas media en intervalos de 10 minutos

Datos horarios

Fecha y hora oficial Temperatura (ºC) Velocidad del viento (km/h) Dirección del viento Racha (km/h) Dirección de racha Precipitación (mm) Presión (hPa) Tendencia (hPa) Humedad (%)
2020-01-25 23:00:00 5.9 6 Sur 15 Sur 0 923.1 1 93
2020-01-25 22:00:00 6.1 6 Sur 18 Sur 0.2 922.8 1.2 93
2020-01-25 21:00:00 6.6 8 Sur 21 Sur 1.2 922.5 1.3 93
2020-01-25 20:00:00 6.7 9 Sudeste 17 Sudeste 0.2 922.1 1.1 93
2020-01-25 19:00:00 6.8 9 Sudeste 17 Sudeste 0 921.6 0.5 91
2020-01-25 18:00:00 7.1 8 Sur 22 Sur 0 921.2 -0.2 90
2020-01-25 17:00:00 7.6 9 Sur 22 Sur 0.2 921 -1.3 88
2020-01-25 16:00:00 7.5 10 Sur 31 Sudeste 0.4 921.1 -2 89
2020-01-25 15:00:00 8 8 Sudeste 18 Sudeste 0.6 921.4 -2.2 87
2020-01-25 14:00:00 7.3 10 Sudeste 26 Sudeste 0.4 922.3 -1 90
2020-01-25 13:00:00 7.3 13 Sudeste 30 Sudeste 0.4 923.1 0.1 90
2020-01-25 12:00:00 7.3 16 Sudeste 31 Sudeste 0 923.6 1 90
2020-01-25 11:00:00 7.1 13 Sudeste 25 Sudeste 0 923.3 0.8 91
2020-01-25 10:00:00 6.2 12 Sudeste 25 Sudeste 0 923 0.8 93
2020-01-25 09:00:00 5.5 13 Sudeste 24 Sudeste 0 922.6 0.6 93
2020-01-25 08:00:00 6 9 Sudeste 21 Sudeste 0 922.5 0.4 92
2020-01-25 07:00:00 6 11 Sudeste 23 Sudeste 0 922.2 -0.4 92
2020-01-25 06:00:00 6.1 11 Sudeste 26 Sudeste 0 922 -0.8 93
2020-01-25 05:00:00 6.1 12 Sudeste 25 Sudeste 0.6 922.1 -1.2 93
2020-01-25 04:00:00 6.2 12 Sudeste 26 Sudeste 0.2 922.6 -1 92
2020-01-25 03:00:00 6.2 15 Sudeste 28 Sudeste 0.4 922.8 -1.3 92
2020-01-25 02:00:00 6.1 12 Sudeste 26 Sudeste 0 923.3 -1 91
2020-01-25 01:00:00 5.8 15 Sudeste 28 Sudeste 0 923.6 -0.9 90
2020-01-25 00:00:00 5.9 9 Sudeste 25 Este 0 924.1 -0.3 88
2020-01-24 23:00:00 6.2 13 Sudeste 25 Sudeste 0 924.3 0.1 86
2020-01-24 22:00:00 6.5 10 Sudeste 24 Sudeste 0 924.5 0.4 85
2020-01-24 21:00:00 7 12 Sudeste 22 Este 0 924.4 0.2 82
2020-01-24 20:00:00 7.4 12 Sudeste 23 Este 0 924.2 0.1 82
2020-01-24 19:00:00 8 8 Sudeste 13 Sudeste 0 924.1 -0.1 76
2020-01-24 18:00:00 8.7 7 Sudeste 15 Sudeste 0 924.2 -0.6 72
2020-01-24 17:00:00 10 10 Sudeste 19 Sudeste 0 924.1 -1.3 66
2020-01-24 16:00:00 8.8 11 Sudeste 21 Sudeste 0 924.2 -1.8 72
2020-01-24 15:00:00 8.2 9 Sudeste 22 Sudeste 0 924.8 -1.6 76
2020-01-24 14:00:00 8.3 13 Sudeste 26 Sudeste 0 925.4 -0.9 73
2020-01-24 13:00:00 8.1 13 Sudeste 21 Sudeste 0 926 0 77
2020-01-24 12:00:00 6.9 12 Sudeste 24 Sudeste 0 926.4 0.8 85
2020-01-24 11:00:00 6 13 Sudeste 24 Sudeste 0 926.3 1.1 87
2020-01-24 10:00:00 5.3 10 Sudeste 21 Sudeste 0 926 1.4 90
2020-01-24 09:00:00 4.9 10 Sudeste 26 Sudeste 0 925.6 1.5 90
2020-01-24 08:00:00 4.7 12 Sudeste 26 Sudeste 0 925.2 1.1 89
2020-01-24 07:00:00 4.7 13 Sudeste 33 Sudeste 0 924.6 0.2 88
2020-01-24 06:00:00 5.2 19 Sudeste 39 Sudeste 0 924.1 -0.5 88
2020-01-24 05:00:00 5.6 21 Sudeste 36 Sudeste 0 924.1 -0.5 88
2020-01-24 04:00:00 5.7 18 Sudeste 35 Sudeste 0 924.4 -0.6 88
2020-01-24 03:00:00 5.8 21 Sudeste 44 Sudeste 0 924.6 -0.2 88
2020-01-24 02:00:00 5.6 23 Sudeste 41 Sudeste 0 924.6 -0.2 90
2020-01-24 01:00:00 5.7 17 Sudeste 34 Sudeste 0 925 0.1 91
2020-01-24 00:00:00 5.6 19 Sudeste 35 Sudeste 0 924.8 0.2 91
2020-01-23 23:00:00 5.4 11 Sudeste 28 Sudeste 0 924.8 0.8 88
2020-01-23 22:00:00 5.2 14 Sudeste 27 Sudeste 0 924.9 1.4 86
2020-01-23 21:00:00 5.3 11 Sudeste 20 Sudeste 0 924.6 1.2 84
2020-01-23 20:00:00 6.1 13 Sudeste 23 Sudeste 0 924 1 82
2020-01-23 19:00:00 7.4 10 Sudeste 22 Sudeste 0 923.5 0.4 76
2020-01-23 18:00:00 8.8 8 Sudeste 22 Sudeste 0 923.4 0.4 68
2020-01-23 17:00:00 10.5 12 Sudeste 28 Sudeste 0 923 -0.7 60
2020-01-23 16:00:00 11.8 11 Sudeste 24 Sudeste 0 923.1 -0.8 57
2020-01-23 15:00:00 10 13 Sudeste 24 Sudeste 0 923 -1.3 67
2020-01-23 14:00:00 8.8 12 Sudeste 30 Sudeste 0 923.7 -1 69
2020-01-23 13:00:00 9 15 Sudeste 33 Sudeste 0 923.9 -0.2 70
2020-01-23 12:00:00 6.6 20 Sudeste 38 Sudeste 0 924.3 1.1 80
2020-01-23 11:00:00 4.4 19 Sudeste 34 Este 0 924.7 2.1 89
2020-01-23 10:00:00 3.5 16 Este 27 Este 0 924.1 1.9 90
2020-01-23 09:00:00 2.6 10 Sudeste 22 Sudeste 0 923.2 0.7 91
2020-01-23 08:00:00 2.7 10 Sudeste 19 Sudeste 0 922.6 0.2 87
2020-01-23 07:00:00 2.6 10 Sudeste 19 Este 0 922.2 -0.5 86
2020-01-23 06:00:00 2.7 8 Este 19 Sudeste 0 922.5 -0.7 84
2020-01-23 05:00:00 2.9 9 Sudeste 22 Este 0 922.4 -0.9 83
2020-01-23 04:00:00 3.3 8 Este 24 Sudeste 0 922.7 -0.5 81
2020-01-23 03:00:00 3.8 10 Este 21 Este 0 923.2 0.2 80
2020-01-23 02:00:00 3.7 7 Este 17 Este 0 923.3 0.3 81
2020-01-23 01:00:00 3.7 8 Este 20 Este 0 923.2 0.5 80
2020-01-23 00:00:00 3.8 10 Este 17 Este 0 923 0.5 79
2020-01-22 23:00:00 4.3 8 Este 18 Este 0 923 0.9 79
2020-01-22 22:00:00 4.6 5 Este 18 Sudeste 0 922.7 0.8 79
2020-01-22 21:00:00 5.1 11 Sudeste 22 Sudeste 0 922.5 1 81
2020-01-22 20:00:00 5.9 10 Sudeste 19 Sudeste 0 922.1 0.7 77
2020-01-22 19:00:00 7.2 8 Sudeste 13 Sudeste 0 921.9 0.3 71
2020-01-22 18:00:00 9.2 8 Sudeste 22 Sudeste 0 921.5 -0.6 62
2020-01-22 17:00:00 11.1 12 Sudeste 28 Este 0 921.4 -1.4 53
2020-01-22 16:00:00 11.1 15 Sudeste 31 Sudeste 0 921.6 -2 56
2020-01-22 15:00:00 11 17 Sudeste 34 Sudeste 0 922.1 -2.2 55
2020-01-22 14:00:00 9.6 17 Este 39 Este 0 922.8 -1.5 63
2020-01-22 13:00:00 9.1 23 Este 42 Sudeste 0 923.6 -0.2 66
2020-01-22 12:00:00 7.5 17 Sudeste 34 Sudeste 0 924.3 0.9 77
2020-01-22 11:00:00 5.8 12 Este 24 Sudeste 0 924.3 1.4 83
2020-01-22 10:00:00 4.4 4 Este 11 Este 0 923.8 1.4 86
2020-01-22 09:00:00 3.7 5 Nordeste 12 Nordeste 0 923.4 1 89
2020-01-22 08:00:00 3.6 5 Nordeste 17 Nordeste 0 922.9 0.4 90
2020-01-22 07:00:00 3.8 7 Nordeste 15 Nordeste 0 922.4 -0.2 88
2020-01-22 06:00:00 3.9 7 Nordeste 18 Este 0 922.4 -0.2 85
2020-01-22 05:00:00 4 6 Este 19 Nordeste 0 922.5 -0.3 85
2020-01-22 04:00:00 4 6 Nordeste 15 Este 0 922.6 0.2 85
2020-01-22 03:00:00 3.9 7 Nordeste 17 Nordeste 0 922.6 0.2 84
2020-01-22 02:00:00 3.5 7 Nordeste 16 Nordeste 0 922.8 0.9 84
2020-01-22 01:00:00 3.9 8 Nordeste 18 Nordeste 0 922.4 0.7 82
2020-01-22 00:00:00 3.7 9 Nordeste 23 Este 0 922.4 0.9 82
2020-01-21 23:00:00 4.1 6 Nordeste 17 Este 0 921.9 1.4 80
2020-01-21 22:00:00 3.9 8 Nordeste 26 Nordeste 0 921.7 1.3 80
2020-01-21 21:00:00 3.8 10 Nordeste 36 Nordeste 0 921.5 1.1 83
2020-01-21 20:00:00 3.9 14 Nordeste 38 Nordeste 0 920.5 0.1 86
2020-01-21 19:00:00 2.8 14 Nordeste 30 Nordeste 0 920.4 -0.2 90
2020-01-21 18:00:00 3 15 Nordeste 29 Nordeste 0 920.4 0.5 88
2020-01-21 17:00:00 2.8 18 Norte 28 Norte 0.8 920.4 -0.2 90
2020-01-21 16:00:00 3.6 15 Nordeste 38 Nordeste 0.4 920.6 -0.9 86
2020-01-21 15:00:00 6.8 17 Nordeste 40 Norte 0 919.9 -2.1 57
2020-01-21 14:00:00 5.8 23 Nordeste 41 Nordeste 0 920.6 -1.9 59
2020-01-21 13:00:00 5.2 23 Nordeste 44 Norte 0 921.5 -0.8 61
2020-01-21 12:00:00 4.4 24 Nordeste 47 Nordeste 0 922 -0.5 67
2020-01-21 11:00:00 3.6 22 Nordeste 42 Nordeste 0 922.5 -0.2 66
2020-01-21 10:00:00 3.2 21 Norte 46 Norte 0 922.3 -0.7 67
2020-01-21 09:00:00 2.9 19 Norte 48 Norte 0 922.5 -0.9 67
2020-01-21 08:00:00 2.6 11 Noroeste 45 Norte 0 922.7 -0.6 69
2020-01-21 07:00:00 2.4 22 Norte 41 Norte 0 923 -1 70
2020-01-21 06:00:00 2 22 Norte 45 Norte 0 923.4 -1.2 70
2020-01-21 05:00:00 1.7 26 Norte 41 Norte 0 923.3 -1.4 71
2020-01-21 04:00:00 1.8 23 Norte 33 Norte 0 924 -1.2 72
2020-01-21 03:00:00 2.6 20 Norte 32 Norte 0 924.6 -0.8 68
2020-01-21 02:00:00 2.4 17 Norte 39 Nordeste 0 924.7 -0.4 69
2020-01-21 01:00:00 2.7 18 Nordeste 42 Nordeste 0 925.2 0 66
2020-01-21 00:00:00 3.2 18 Nordeste 38 Nordeste 0 925.4 0.1 63
2020-01-20 23:00:00 2.9 19 Nordeste 39 Nordeste 0 925.1 0.2 63
2020-01-20 22:00:00 2.6 22 Nordeste 40 Norte 0 925.2 0.1 65
2020-01-20 21:00:00 2.6 23 Nordeste 40 Nordeste 0 925.3 0.6 63
2020-01-20 20:00:00 2.6 18 Norte 41 Norte 0 924.9 0.5 63
2020-01-20 19:00:00 2.6 18 Norte 37 Norte 0 925.1 1 64
2020-01-20 18:00:00 3.3 19 Norte 43 Nordeste 0 924.7 0.5 60
2020-01-20 17:00:00 4.7 19 Nordeste 52 Nordeste 0 924.4 -0.4 55
2020-01-20 16:00:00 4.5 27 Nordeste 51 Norte 0 924.1 -1.4 55
2020-01-20 15:00:00 4.7 25 Nordeste 53 Nordeste 0 924.2 -1.7 54
2020-01-20 14:00:00 4.1 24 Nordeste 46 Nordeste 0 924.8 -0.9 53
2020-01-20 13:00:00 3.3 26 Nordeste 55 Norte 0 925.5 0.2 52
2020-01-20 12:00:00 2.9 27 Nordeste 50 Nordeste 0 925.9 0.8 51
2020-01-20 11:00:00 1.2 23 Norte 50 Norte 0 925.7 0.5 50
2020-01-20 10:00:00 0.6 26 Norte 43 Norte 0 925.3 -0.1 50
2020-01-20 09:00:00 0.5 29 Norte 48 Norte 0 925.1 -0.6 51
2020-01-20 08:00:00 0.3 24 Norte 41 Norte 0 925.2 -0.8 52
2020-01-20 07:00:00 0.3 24 Norte 48 Norte 0 925.4 -1 53
2020-01-20 06:00:00 0.2 19 Norte 46 Norte 0 925.7 -1.2 54
2020-01-20 05:00:00 0.2 23 Norte 50 Norte 0 926 -1.1 55
2020-01-20 04:00:00 0.4 30 Norte 49 Norte 0 926.4 -1 54
2020-01-20 03:00:00 0.6 23 Norte 55 Norte 0 926.9 -0.6 54
2020-01-20 02:00:00 0.8 21 Norte 53 Norte 0 927.1 -0.2 57
2020-01-20 01:00:00 1.2 33 Norte 60 Norte 0 927.4 0.2 54
2020-01-20 00:00:00 1.5 31 Norte 50 Norte 0 927.5 0.6 53
2020-01-19 23:00:00 1.9 26 Norte 57 Norte 0 927.3 1.2 52
2020-01-19 22:00:00 2.3 30 Norte 54 Nordeste 0 927.2 1.8 46
2020-01-19 21:00:00 2.8 27 Nordeste 55 Norte 0 926.9 2.2 43
2020-01-19 20:00:00 3.5 24 Nordeste 55 Norte 0 926.1 1.9 40
2020-01-19 19:00:00 4.6 32 Norte 62 Norte 0 925.4 1.2 38
2020-01-19 18:00:00 5.2 27 Norte 52 Norte 0 924.7 0.9 45
2020-01-19 17:00:00 5.3 24 Norte 54 Norte 0 924.2 0.3 51
2020-01-19 16:00:00 4.9 33 Norte 55 Norte 0 924.2 -0.1 59
2020-01-19 15:00:00 5.9 30 Nordeste 56 Nordeste 0 923.8 -0.6 60
2020-01-19 14:00:00 5.7 33 Norte 60 Norte 0 923.9 -0.3 64
2020-01-19 13:00:00 5.4 27 Norte 53 Norte 0 924.3 0.8 72
2020-01-19 12:00:00 4.9 25 Norte 54 Norte 0 924.4 1 77
2020-01-19 11:00:00 4 15 Noroeste 33 Noroeste 0 924.2 0.8 87
2020-01-19 10:00:00 3.3 7 Noroeste 19 Noroeste 0 923.5 0 91
2020-01-19 09:00:00 2.7 6 Noroeste 16 Noroeste 0 923.4 -0.3 92
2020-01-19 08:00:00 2.5 8 Norte 15 Norte 0 923.4 -0.4 91
2020-01-19 07:00:00 2.3 6 Noroeste 17 Noroeste 0 923.5 -0.7 90
2020-01-19 06:00:00 3.1 6 Noroeste 21 Norte 0 923.7 -0.7 89
2020-01-19 05:00:00 3.8 9 Noroeste 25 Noroeste 0 923.8 -0.6 87
2020-01-19 04:00:00 4.7 8 Noroeste 19 Noroeste 0 924.2 -0.1 89
2020-01-19 03:00:00 4.8 4 Noroeste 8 Noroeste 0 924.4 0 88
2020-01-19 02:00:00 5.3 4 Noroeste 23 Norte 0 924.4 -1 87
2020-01-19 01:00:00 6.6 8 Noroeste 40 Noroeste 0 924.3 -1.1 89
2020-01-19 00:00:00 7.2 10 Noroeste 31 Noroeste 0 924.4 -1.6 94
2020-01-18 23:00:00 8 16 Oeste 38 Noroeste 0 925.4 -0.6 93
2020-01-18 22:00:00 7.9 24 Oeste 35 Oeste 1 925.4 -1.1 93
2020-01-18 21:00:00 8.1 14 Sudoeste 28 Sudoeste 0 926 -1.2 95
2020-01-18 20:00:00 8 16 Sudoeste 33 Sur 0 926 -1.7 95
2020-01-18 19:00:00 8 13 Sudoeste 31 Sur 0.2 926.5 -2.2 94
2020-01-18 18:00:00 8.1 13 Sudoeste 33 Sur 0 927.2 -2.6 93
2020-01-18 17:00:00 8.3 15 Sudoeste 32 Sur 0 927.7 -3.2 91
2020-01-18 16:00:00 8.3 14 Sudoeste 31 Sudoeste 0 928.7 -3.9 90
2020-01-18 15:00:00 8.3 20 Sudoeste 33 Sudoeste 0 929.8 -3.9 90
2020-01-18 14:00:00 7.8 13 Sur 28 Sudoeste 0 930.9 -3.3 91
2020-01-18 13:00:00 7.3 9 Sur 24 Sur 0 932.6 -1.5 89
2020-01-18 12:00:00 7.6 11 Sur 23 Sudeste 0 933.7 -0.5 88
2020-01-18 11:00:00 6.3 9 Sudeste 17 Sur 0 934.2 -0.7 92
2020-01-18 10:00:00 5.3 8 Sudeste 15 Sudeste 0 934.1 -0.6 92
2020-01-18 09:00:00 5 6 Sudeste 18 Sur 0.2 934.2 0 92
2020-01-18 08:00:00 5 6 Sur 14 Sudoeste 1 934.9 0.5 91
2020-01-18 07:00:00 5.2 5 Sur 15 Este 0 934.7 0.2 88
2020-01-18 06:00:00 4.8 8 Sudeste 15 Sudeste 0 934.2 -0.5 89
2020-01-18 05:00:00 4.7 6 Sudeste 14 Sur 0 934.4 -0.8 89
2020-01-18 04:00:00 5 5 Sur 16 Sur 0 934.5 -1.1 88
2020-01-18 03:00:00 5.3 7 Sur 14 Sudeste 0 934.7 -1.2 88
2020-01-18 02:00:00 5.2 6 Sudeste 14 Sur 0 935.2 -0.9 87
2020-01-18 01:00:00 5.5 6 Sur 14 Sudeste 0 935.6 -0.5 85
2020-01-18 00:00:00 6.1 5 Sudoeste 10 Oeste 0 935.9 -0.3 84
2020-01-17 23:00:00 6.3 6 Oeste 10 Noroeste 0 936.1 0.3 80
2020-01-17 22:00:00 7 4 Noroeste 10 Noroeste 0 936.1 0.4 80
2020-01-17 21:00:00 6.9 5 Noroeste 13 Oeste 0 936.2 0.9 80
2020-01-17 20:00:00 7.4 6 Oeste 17 Oeste 0 935.8 0.9 78
2020-01-17 19:00:00 8.1 6 Oeste 25 Oeste 0 935.7 1.1 73
2020-01-17 18:00:00 10.4 8 Oeste 25 Oeste 0 935.3 0.6 64
2020-01-17 17:00:00 12.1 17 Oeste 27 Oeste 0 934.9 0 57
2020-01-17 16:00:00 12.4 14 Oeste 30 Oeste 0 934.6 -0.6 59
2020-01-17 15:00:00 10.7 17 Oeste 35 Sudoeste 0 934.7 -1.1 64
2020-01-17 14:00:00 11.6 15 Oeste 40 Noroeste 0 934.9 -0.5 61
2020-01-17 13:00:00 10 22 Oeste 42 Oeste 0 935.2 0.6 67
2020-01-17 12:00:00 9.7 25 Sudoeste 37 Sudoeste 0 935.8 1.9 70
2020-01-17 11:00:00 7.8 14 Oeste 23 Sudoeste 0 935.4 1.7 78
2020-01-17 10:00:00 5.9 8 Sudoeste 15 Sur 0 934.6 1.7 78
2020-01-17 09:00:00 5.4 6 Sur 14 Sudoeste 0 933.9 1.3 79
2020-01-17 08:00:00 5.3 8 Sudoeste 17 Sudoeste 0 933.7 1.4 76
2020-01-17 07:00:00 5 9 Sudoeste 19 Sudoeste 0 932.9 0.5 73
2020-01-17 06:00:00 5.8 7 Sur 22 Sur 0 932.6 0.3 68
2020-01-17 05:00:00 6.4 6 Sur 15 Sudoeste 0 932.3 0.1 64
2020-01-17 04:00:00 5.3 8 Sudoeste 19 Sur 0 932.4 0.1 70
2020-01-17 03:00:00 5.4 9 Sur 20 Sur 0 932.3 -0.1 69
2020-01-17 02:00:00 5.1 12 Sudeste 22 Sudeste 0 932.2 0.3 68
2020-01-17 01:00:00 5.8 10 Sur 21 Sur 0 932.3 0.5 65
2020-01-17 00:00:00 6.2 8 Sur 19 Sur 0 932.4 1 62
2020-01-16 23:00:00 6.9 7 Sur 16 Sur 0 931.9 0.7 58
2020-01-16 22:00:00 7.8 7 Sur 15 Sur 0 931.8 1.1 56
2020-01-16 21:00:00 8.2 7 Sur 18 Sur 0 931.4 0.9 54
2020-01-16 20:00:00 8.9 8 Sur 18 Sur 0 931.2 0.8 51
2020-01-16 19:00:00 9.7 7 Sur 18 Sudoeste 0 930.7 0.3 47
2020-01-16 18:00:00 12 11 Sudoeste 28 Sudoeste 0 930.5 -0.4 41
2020-01-16 17:00:00 14.9 15 Sudoeste 26 Sudoeste 0 930.4 -1.2 33
2020-01-16 16:00:00 15.2 14 Sudoeste 29 Sur 0 930.4 -1.8 38
2020-01-16 15:00:00 13.5 13 Sudoeste 26 Sudoeste 0 930.9 -1.9 50
2020-01-16 14:00:00 12 14 Sudoeste 28 Sudoeste 0 931.6 -1.3 56
2020-01-16 13:00:00 12.1 13 Sur 29 Sur 0 932.2 -0.5 62
2020-01-16 12:00:00 10.2 8 Sur 24 Sudeste 0 932.8 0.4 68
2020-01-16 11:00:00 8.5 10 Sudeste 22 Sudeste 0 932.9 0.8 71
2020-01-16 10:00:00 6.6 12 Sudeste 21 Sudeste 0 932.7 0.8 79
2020-01-16 09:00:00 5.2 12 Sudeste 19 Sur 0 932.4 0.8 84
2020-01-16 08:00:00 5.7 9 Sudeste 19 Sur 0 932.1 0.3 82
2020-01-16 07:00:00 6.3 6 Sur 22 Sudeste 0 931.9 -0.2 81
2020-01-16 06:00:00 6.9 10 Sudeste 21 Sudeste 0 931.6 -0.5 81
2020-01-16 05:00:00 7 6 Sur 15 Sudeste 0 931.8 -0.5 84
2020-01-16 04:00:00 6.9 10 Sudeste 17 Sudeste 0 932.1 -0.2 83
2020-01-16 03:00:00 7.3 8 Sudeste 14 Sudeste 0 932.1 -0.4 82
2020-01-16 02:00:00 7.4 6 Sudeste 14 Sudeste 0 932.3 -0.1 82
2020-01-16 01:00:00 7.1 8 Sudeste 13 Sur 0 932.3 0.1 81
2020-01-16 00:00:00 7.9 7 Sudeste 13 Sudeste 0 932.5 0.5 80
2020-01-15 23:00:00 8.2 7 Sudoeste 15 Sudoeste 0 932.4 0.5 78
2020-01-15 22:00:00 8.5 6 Sur 13 Sur 0 932.2 0.8 77
2020-01-15 21:00:00 8.9 7 Sur 13 Sur 0 932 1.1 75
2020-01-15 20:00:00 9 3 Oeste 9 Sur 0 931.9 1.5 72
2020-01-15 19:00:00 9.2 2 Noroeste 5 Sudoeste 0 931.4 1.1 70
2020-01-15 18:00:00 9.7 4 Sudoeste 13 Sur 0 930.9 0.7 68
2020-01-15 17:00:00 10.1 6 Sur 14 Sudoeste 0 930.4 -0.2 66
2020-01-15 16:00:00 10.8 8 Sudoeste 17 Sudoeste 0 930.3 -0.5 61
2020-01-15 15:00:00 10.3 6 Sur 17 Sur 0 930.2 -0.7 64
2020-01-15 14:00:00 7.8 7 Sudoeste 19 Sur 0 930.6 0.3 71
2020-01-15 13:00:00 6.6 9 Sur 21 Sur 0 930.8 1.4 77
2020-01-15 12:00:00 6.1 9 Sur 21 Sur 0 930.9 2 80
2020-01-15 11:00:00 4.9 12 Sudeste 22 Sudeste 0 930.3 2.1 83
2020-01-15 10:00:00 2.7 13 Sudeste 22 Sudeste 0 929.4 1.4 90
2020-01-15 09:00:00 1.9 10 Sudeste 25 Sudeste 0 928.9 1.1 91
2020-01-15 08:00:00 2 11 Sudeste 25 Sudeste 0 928.2 0.3 91
2020-01-15 07:00:00 2 8 Sudeste 17 Sudeste 0 928 0.1 89
2020-01-15 06:00:00 2.6 8 Sudeste 15 Sudeste 0 927.8 -0.1 87
2020-01-15 05:00:00 3 6 Sur 18 Sur 0 927.9 0 85
2020-01-15 04:00:00 3.1 12 Sudeste 20 Sudeste 0 927.9 0.1 85
2020-01-15 03:00:00 3.7 8 Sur 18 Sur 0 927.9 -0.1 82
2020-01-15 02:00:00 3.5 10 Sur 18 Sur 0 927.9 0.1 82
2020-01-15 01:00:00 3.6 8 Sudeste 17 Sur 0 927.8 -0.1 81
2020-01-15 00:00:00 3.5 8 Sur 17 Sur 0 928 0.3 82
2020-01-14 23:00:00 3.4 6 Sur 15 Sur 0 927.8 0.5 79
2020-01-14 22:00:00 4.1 7 Sudeste 15 Sudeste 0 927.9 0.7 75
2020-01-14 21:00:00 4.9 5 Sur 12 Sudeste 0 927.7 0.9 72
2020-01-14 20:00:00 5.1 7 Sudeste 14 Sur 0 927.3 0.6 69
2020-01-14 19:00:00 6.3 7 Sur 13 Sur 0 927.2 0.5 65
2020-01-14 18:00:00 7.7 5 Sudoeste 14 Sudoeste 0 926.8 -0.1 56
2020-01-14 17:00:00 11.5 8 Sudoeste 14 Oeste 0 926.7 -0.7 44
2020-01-14 16:00:00 11.1 7 Oeste 17 Oeste 0 926.7 -1.3 46
2020-01-14 15:00:00 11.1 8 Oeste 18 Sudoeste 0 926.9 -1.5 48
2020-01-14 14:00:00 10.5 10 Sudoeste 18 Sudoeste 0 927.4 -1 52
2020-01-14 13:00:00 8.5 8 Sudoeste 17 Sudoeste 0 928 -0.1 58
2020-01-14 12:00:00 5.2 8 Sur 18 Sudeste 0 928.4 0.7 69
2020-01-14 11:00:00 2.9 8 Sur 15 Sur 0 928.4 0.8 78
2020-01-14 10:00:00 1 8 Sudeste 14 Sudeste 0 928.1 0.8 84
2020-01-14 09:00:00 -0.7 9 Sudeste 16 Sudeste 0 927.7 0.6 85
2020-01-14 08:00:00 -0.8 10 Sudeste 17 Sudeste 0 927.6 0.3 84
2020-01-14 07:00:00 -0.7 8 Sudeste 13 Sur 0 927.3 -0.2 84
2020-01-14 06:00:00 -0.4 6 Sudeste 10 Sur 0 927.1 -0.7 84
2020-01-14 05:00:00 -0.2 5 Sudeste 8 Sudeste 0 927.3 -0.8 80
2020-01-14 04:00:00 -0.2 5 Sudeste 11 Sudeste 0 927.5 -1 81
2020-01-14 03:00:00 0 3 Sudeste 5 Sudeste 0 927.8 -0.8 81
2020-01-14 02:00:00 0.3 0 Calma 4 Norte 0 928.1 -0.8 78
2020-01-14 01:00:00 0.2 0 Calma 5 Sudeste 0 928.5 -0.1 78
2020-01-14 00:00:00 1.6 3 Este 4 Este 0 928.6 0 73
2020-01-13 23:00:00 2.3 3 Noroeste 6 Noroeste 0 928.9 0 72
2020-01-13 22:00:00 2.5 4 Sudoeste 6 Sudoeste 0 928.6 -0.3 71
2020-01-13 21:00:00 3 2 Sur 5 Sudoeste 0 928.6 0 70
2020-01-13 20:00:00 4.2 3 Oeste 6 Oeste 0 928.9 0.2 67
2020-01-13 19:00:00 5.4 2 Sudoeste 6 Sudoeste 0 928.9 -0.2 62
2020-01-13 18:00:00 7.3 2 Noroeste 11 Oeste 0 928.6 -0.7 56
2020-01-13 17:00:00 9 7 Oeste 17 Oeste 0 928.7 -1 49
2020-01-13 16:00:00 9.9 10 Oeste 21 Noroeste 0 929.1 -1 47
2020-01-13 15:00:00 9.2 5 Noroeste 20 Oeste 0 929.3 -1.9 52
2020-01-13 14:00:00 9.1 13 Sudoeste 24 Sudoeste 0 929.7 -1.6 49
2020-01-13 13:00:00 7.6 8 Sur 16 Sur 0 930.1 -0.9 55
2020-01-13 12:00:00 5.2 6 Sur 15 Sur 0 931.2 0.6 64
2020-01-13 11:00:00 3.2 7 Sudeste 13 Sudeste 0 931.3 0.6 71
2020-01-13 10:00:00 1 6 Sur 17 Sur 0 931 0.2 74
2020-01-13 09:00:00 -0.9 11 Sudeste 18 Sudeste 0 930.6 -0.4 75
2020-01-13 08:00:00 -0.9 8 Sudeste 14 Sudeste 0 930.7 -0.7 75
2020-01-13 07:00:00 -0.3 6 Sudeste 11 Sudeste 0 930.8 -0.8 72
2020-01-13 06:00:00 -0.1 6 Sudeste 9 Sudeste 0 931 -1.1 71
2020-01-13 05:00:00 -0.4 2 Sudeste 10 Sudeste 0 931.4 -0.9 75
2020-01-13 04:00:00 0 6 Sudeste 14 Sudeste 0 931.6 -1.5 76
2020-01-13 03:00:00 0.1 0 Calma 5 Noroeste 0 932.1 -1.3 77
2020-01-13 02:00:00 0.8 4 Sudeste 8 Sudeste 0 932.3 -1.2 76
2020-01-13 01:00:00 1.1 2 Sudeste 5 Noroeste 0 933.1 -0.6 71
2020-01-13 00:00:00 1.8 2 Nordeste 5 Noroeste 0 933.4 -0.5 72
2020-01-12 23:00:00 2.2 3 Norte 4 Norte 0 933.5 -0.4 70
2020-01-12 22:00:00 2.7 2 Nordeste 4 Noroeste 0 933.7 0.3 67
2020-01-12 21:00:00 3.3 0 Calma 5 Noroeste 0 933.9 0.9 63
2020-01-12 20:00:00 3.9 3 Sudoeste 9 Sudoeste 0 933.9 1 60
2020-01-12 19:00:00 5.3 4 Sudoeste 6 Sur 0 933.4 0.5 53
2020-01-12 18:00:00 8.6 0 Calma 12 Noroeste 0 933 -0.2 44
2020-01-12 17:00:00 11.5 5 Noroeste 18 Noroeste 0 932.9 -0.9 34
2020-01-12 16:00:00 11.8 7 Oeste 20 Noroeste 0 932.9 -1.6 33
2020-01-12 15:00:00 11.1 10 Noroeste 19 Noroeste 0 933.2 -2.2 35
2020-01-12 14:00:00 9.8 6 Noroeste 19 Oeste 0 933.8 -1.8 50
2020-01-12 13:00:00 8.6 4 Noroeste 10 Oeste 0 934.5 -0.4 53
2020-01-12 12:00:00 5.9 4 Sudoeste 9 Sur 0 935.4 0.9 60
2020-01-12 11:00:00 3 5 Sur 9 Sur 0 935.6 1.1 77
2020-01-12 10:00:00 0.3 3 Sudeste 8 Sudeste 0 934.9 0.6 84
2020-01-12 09:00:00 -1.6 3 Sur 7 Sudeste 0 934.5 0.4 82
2020-01-12 08:00:00 -0.3 2 Este 4 Sudoeste 0 934.5 0.3 82
2020-01-12 07:00:00 -0.1 0 Calma 6 Este 0 934.3 -0.1 82
2020-01-12 06:00:00 1.1 3 Nordeste 6 Norte 0 934.1 -0.5 82
2020-01-12 05:00:00 1.2 3 Nordeste 5 Norte 0 934.2 -0.4 80
2020-01-12 04:00:00 1.3 3 Nordeste 5 Norte 0 934.4 -0.3 78
2020-01-12 03:00:00 1.2 3 Norte 4 Norte 0 934.6 -0.4 80
2020-01-12 02:00:00 1.5 0 Calma 6 Nordeste 0 934.6 -0.5 76
2020-01-12 01:00:00 2.7 3 Norte 4 Norte 0 934.7 -0.3 73
2020-01-12 00:00:00 3.1 3 Norte 5 Noroeste 0 935 0.2 73
2020-01-11 23:00:00 3.4 3 Norte 4 Norte 0 935.1 0.4 72
2020-01-11 22:00:00 3.9 3 Noroeste 6 Sudoeste 0 935 0.7 71
2020-01-11 21:00:00 4.3 5 Sudoeste 9 Sudoeste 0 934.8 0.8 69
2020-01-11 20:00:00 4.9 6 Sudoeste 9 Oeste 0 934.7 0.7 67
2020-01-11 19:00:00 6.5 5 Oeste 6 Sudoeste 0 934.3 0.4 61
2020-01-11 18:00:00 10.6 2 Noroeste 11 Noroeste 0 934 0 46
2020-01-11 17:00:00 11.2 4 Noroeste 13 Noroeste 0 934 -0.5 42
2020-01-11 16:00:00 10.4 7 Noroeste 15 Noroeste 0 933.9 -1.4 42
2020-01-11 15:00:00 10.2 7 Norte 14 Norte 0 934 -2 40
2020-01-11 14:00:00 10.3 5 Noroeste 15 Noroeste 0 934.5 -1.4 46
2020-01-11 13:00:00 8.9 4 Noroeste 12 Norte 0 935.3 -0.1 50
2020-01-11 12:00:00 6.2 4 Nordeste 11 Este 0 936 1.1 63
2020-01-11 11:00:00 3.9 6 Nordeste 12 Este 0 935.9 1.3 69
2020-01-11 10:00:00 1.8 3 Norte 8 Norte 0 935.4 1.3 82
2020-01-11 09:00:00 0.3 6 Norte 8 Norte 0 934.9 1 86
2020-01-11 08:00:00 0.2 4 Norte 7 Norte 0 934.6 0.6 85
2020-01-11 07:00:00 0.4 4 Norte 9 Norte 0 934.1 -0.2 84
2020-01-11 06:00:00 0.5 4 Norte 8 Norte 0 933.9 -0.1 83
2020-01-11 05:00:00 0.4 6 Norte 14 Norte 0 934 0.2 85
2020-01-11 04:00:00 0.7 5 Noroeste 16 Norte 0 934.3 0.4 81
2020-01-11 03:00:00 1.2 6 Norte 20 Norte 0 934 -0.3 80
2020-01-11 02:00:00 2.5 10 Norte 23 Norte 0 933.8 -0.2 75
2020-01-11 01:00:00 3.6 15 Norte 27 Nordeste 0 933.9 -0.2 70
2020-01-11 00:00:00 4.3 15 Nordeste 39 Nordeste 0 934.3 0.8 66
2020-01-10 23:00:00 3.9 10 Nordeste 29 Norte 0 934 0.9 66
2020-01-10 22:00:00 4.4 18 Norte 29 Norte 0 934.1 1.4 65
2020-01-10 21:00:00 5.6 9 Nordeste 22 Nordeste 0 933.5 1.4 58
2020-01-10 20:00:00 6 13 Norte 24 Nordeste 0 933.1 1.5 56
2020-01-10 19:00:00 6.7 11 Nordeste 32 Norte 0 932.7 1.3 53
2020-01-10 18:00:00 8.4 16 Nordeste 42 Norte 0 932.1 0.9 47
2020-01-10 17:00:00 9.9 20 Norte 40 Norte 0 931.6 0 44
2020-01-10 16:00:00 9.7 23 Norte 42 Norte 0 931.4 -0.6 44
2020-01-10 15:00:00 9.5 20 Norte 41 Norte 0 931.2 -1.3 45
2020-01-10 14:00:00 9.1 17 Norte 33 Norte 0 931.6 -0.7 52
2020-01-10 13:00:00 7.5 12 Norte 28 Norte 0 932 0.1 63
2020-01-10 12:00:00 5 11 Norte 22 Norte 0 932.5 1.2 77
2020-01-10 11:00:00 3.1 9 Noroeste 18 Norte 0 932.3 1.1 83
2020-01-10 10:00:00 2.3 9 Norte 21 Norte 0 931.9 1.9 88
2020-01-10 09:00:00 1.6 10 Norte 19 Norte 0 931.3 1.7 96
2020-01-10 08:00:00 1.4 10 Norte 19 Norte 0 931.2 1.6 96
2020-01-10 07:00:00 1.3 4 Norte 10 Norte 0 930 0.3 93
2020-01-10 06:00:00 2.3 7 Norte 12 Norte 0 929.6 0 91
2020-01-10 05:00:00 2.3 2 Noroeste 8 Oeste 0 929.6 -0.1 91
2020-01-10 04:00:00 2.3 3 Sudoeste 8 Sudoeste 0 929.7 -0.2 89
2020-01-10 03:00:00 2.7 2 Sudoeste 9 Oeste 0 929.6 -0.2 87
2020-01-10 02:00:00 3.7 6 Oeste 9 Oeste 0 929.7 -0.1 87
2020-01-10 01:00:00 3.6 6 Sudoeste 11 Oeste 0 929.9 -0.5 87
2020-01-10 00:00:00 4.3 5 Sudeste 13 Sudeste 0 929.8 -0.9 85
2020-01-09 23:00:00 4.9 5 Sudeste 12 Sudeste 0 929.8 -0.3 83
2020-01-09 22:00:00 5.2 3 Sudoeste 7 Norte 0 930.4 0.8 80
2020-01-09 21:00:00 6.4 4 Noroeste 13 Sudoeste 0 930.7 0.7 80
2020-01-09 20:00:00 6.5 8 Sudoeste 15 Sudoeste 0 930.1 0.7 77
2020-01-09 19:00:00 7.8 7 Sur 17 Sur 0 929.6 0 71
2020-01-09 18:00:00 10.3 6 Sur 15 Sur 0 930 -0.2 61
2020-01-09 17:00:00 13.9 8 Sur 16 Sudoeste 0 929.4 -1 49
2020-01-09 16:00:00 14.4 8 Sudoeste 18 Oeste 0 929.6 -1.7 47
2020-01-09 15:00:00 15.5 4 Sudoeste 14 Sur 0 930.2 -2.1 42
2020-01-09 14:00:00 13.7 9 Sur 19 Sur 0 930.4 -1.7 49
2020-01-09 13:00:00 11.6 9 Sudeste 17 Sudeste 0 931.3 -0.6 57
2020-01-09 12:00:00 8.7 10 Sudeste 22 Sudeste 0 932.3 0.7 64
2020-01-09 11:00:00 6.7 7 Este 13 Sudeste 0 932.1 0.7 72
2020-01-09 10:00:00 5.4 5 Nordeste 11 Nordeste 0 931.9 0.6 71
2020-01-09 09:00:00 4.6 4 Este 18 Este 0 931.6 0.1 71
2020-01-09 08:00:00 4.8 9 Este 25 Sudeste 0 931.4 -0.3 69
2020-01-09 07:00:00 5.1 15 Sudeste 28 Este 0 931.3 -1.1 70
2020-01-09 06:00:00 5.3 15 Sudeste 26 Sudeste 0 931.5 -1.2 67
2020-01-09 05:00:00 5.6 14 Sudeste 28 Sudeste 0 931.7 -1.1 64
2020-01-09 04:00:00 5.8 16 Sudeste 28 Sudeste 0 932.4 -0.6 63
2020-01-09 03:00:00 5.8 11 Sudeste 24 Este 0 932.7 -0.6 66
2020-01-09 02:00:00 5.8 13 Sudeste 22 Sudeste 0 932.8 -0.6 72
2020-01-09 01:00:00 5.9 11 Sudeste 17 Sudeste 0 933 -0.4 76
2020-01-09 00:00:00 6.3 9 Sudeste 21 Sudeste 0 933.3 -0.1 77
2020-01-08 23:00:00 7.1 11 Sudeste 20 Sudeste 0 933.4 0.1 73
2020-01-08 22:00:00 7.7 12 Sudeste 19 Sudeste 0 933.4 0.3 69
2020-01-08 21:00:00 8.3 11 Sudeste 23 Sudeste 0 933.4 0.6 68
2020-01-08 20:00:00 8.9 12 Sudeste 20 Sudeste 0 933.3 0.7 60
2020-01-08 19:00:00 10.1 9 Sudeste 17 Sudeste 0 933.1 0.8 55
2020-01-08 18:00:00 13.3 9 Sudeste 20 Sudeste 0 932.8 0.4 45
2020-01-08 17:00:00 17.1 8 Sur 22 Sudoeste 0 932.6 -0.1 33
2020-01-08 16:00:00 18.1 3 Norte 11 Este 0 932.3 -1.1 30
2020-01-08 15:00:00 17.4 2 Oeste 11 Noroeste 0 932.4 -1.7 20
2020-01-08 14:00:00 15.9 6 Noroeste 16 Noroeste 0 932.7 -1.6 19
2020-01-08 13:00:00 13.2 4 Noroeste 8 Noroeste 0 933.4 -0.5 31
2020-01-08 12:00:00 9.5 3 Noroeste 8 Noroeste 0 934.1 0.6 41
2020-01-08 11:00:00 8.5 3 Norte 5 Noroeste 0 934.3 1 45
2020-01-08 10:00:00 5.2 2 Este 7 Este 0 933.9 0.8 61
2020-01-08 09:00:00 3.2 2 Nordeste 6 Norte 0 933.5 0.2 68
2020-01-08 08:00:00 2.4 0 Calma 9 Noroeste 0 933.3 -0.2 73
2020-01-08 07:00:00 3.1 2 Noroeste 5 Sudoeste 0 933.1 -0.6 80
2020-01-08 06:00:00 2.9 0 Calma 5 Oeste 0 933.3 -0.5 78
2020-01-08 05:00:00 3.3 3 Noroeste 7 Noroeste 0 933.5 -0.4 79
2020-01-08 04:00:00 3 0 Calma 6 Nordeste 0 933.7 -0.5 81
2020-01-08 03:00:00 3.9 3 Este 6 Nordeste 0 933.8 -0.7 76
2020-01-08 02:00:00 4.6 4 Norte 8 Norte 0 933.9 -0.6 74
2020-01-08 01:00:00 5.1 6 Norte 11 Norte 0 934.2 -0.4 72
2020-01-08 00:00:00 5.1 7 Norte 10 Norte 0 934.5 0 69
2020-01-07 23:00:00 6 6 Norte 16 Norte 0 934.5 -0.1 67
2020-01-07 22:00:00 6.2 6 Norte 9 Norte 0 934.6 0.2 56
2020-01-07 21:00:00 7 5 Noroeste 8 Noroeste 0 934.5 0.2 51
2020-01-07 20:00:00 7.4 5 Norte 8 Norte 0 934.6 0.4 57
2020-01-07 19:00:00 8.9 3 Oeste 8 Noroeste 0 934.4 0.1 53
2020-01-07 18:00:00 11.9 3 Noroeste 8 Noroeste 0 934.3 -0.1 45
2020-01-07 17:00:00 15.3 5 Noroeste 12 Norte 0 934.2 -0.7 34
2020-01-07 16:00:00 13.7 7 Norte 16 Norte 0 934.3 -1.4 31
2020-01-07 15:00:00 14.1 6 Norte 14 Noroeste 0 934.4 -1.7 33
2020-01-07 14:00:00 13.7 4 Noroeste 13 Noroeste 0 934.9 -1.3 30
2020-01-07 13:00:00 11.8 4 Noroeste 10 Noroeste 0 935.7 0 38
2020-01-07 12:00:00 9.7 5 Noroeste 12 Noroeste 0 936.1 0.8 39
2020-01-07 11:00:00 5.7 0 Calma 5 Noroeste 0 936.2 1.2 61
2020-01-07 10:00:00 3.2 0 Calma 4 Noroeste 0 935.7 0.8 71
2020-01-07 09:00:00 2 3 Noroeste 6 Noroeste 0 935.3 0.5 71
2020-01-07 08:00:00 2.2 4 Norte 9 Norte 0 935 0.2 73
2020-01-07 07:00:00 2.2 8 Norte 11 Norte 0 934.9 -0.2 75
2020-01-07 06:00:00 2.4 4 Norte 7 Norte 0 934.8 -0.3 77
2020-01-07 05:00:00 3 4 Noroeste 7 Norte 0 934.8 -0.2 77
2020-01-07 04:00:00 2.9 8 Norte 11 Norte 0 935.1 0.4 82
2020-01-07 03:00:00 3.4 4 Norte 5 Norte 0 935.1 0.3 80
2020-01-07 02:00:00 3.9 6 Norte 12 Norte 0 935 0.2 80
2020-01-07 01:00:00 4.6 3 Norte 8 Norte 0 934.7 0.1 77
2020-01-07 00:00:00 4.9 8 Norte 10 Norte 0 934.8 0.6 75
2020-01-06 23:00:00 5.2 5 Noroeste 9 Noroeste 0 934.8 1.4 74
2020-01-06 22:00:00 5.4 4 Norte 9 Noroeste 0 934.6 1.7 71
2020-01-06 21:00:00 6.2 6 Noroeste 10 Noroeste 0 934.2 1.3 63
2020-01-06 20:00:00 7 2 Noroeste 10 Noroeste 0 933.4 0.8 58
2020-01-06 19:00:00 9.3 5 Este 8 Este 0 932.9 0.4 49
2020-01-06 18:00:00 11.8 4 Norte 6 Norte 0 932.9 0.4 40
2020-01-06 17:00:00 14.4 4 Norte 9 Nordeste 0 932.6 0 34
2020-01-06 16:00:00 13.3 6 Norte 13 Norte 0 932.5 -0.9 37
2020-01-06 15:00:00 13.8 6 Noroeste 13 Norte 0 932.5 -1.4 34
2020-01-06 14:00:00 13.5 3 Noroeste 8 Noroeste 0 932.6 -1.4 38
2020-01-06 13:00:00 10.9 5 Norte 10 Nordeste 0 933.4 -0.3 44
2020-01-06 12:00:00 8.8 6 Nordeste 13 Este 0 933.9 0.6 47
2020-01-06 11:00:00 6.6 6 Nordeste 17 Este 0 934 1.3 53
2020-01-06 10:00:00 3.7 4 Este 10 Este 0 933.7 1 61